SBMQSBMA

Guest
Details From SBMQ - MACAPA
To SBMA - Maraba
Flight Number -
Tags generated
Created
Modified
Stats Distance 367 nm / 680 km
Max Altitude 34,000 ft / 10,363 m
Waypoints 6
Social Downloads 0
Likes 0
Share VATSIM

Download

Looking for another format? Having issues loading an existing format? Contact us
Advertisement - Login to hide

Notes

Basic altitude profile: - Ascent Rate: 500ft/min - Ascent Speed: 140kts - Cruise Altitude: 8000ft - Cruise Speed: 160kts - Descent Rate: 500ft/min - Descent Speed: 120kts Options: - Use NATs: yes - Use PACOTS: yes - Use low airways: no - Use high airways: no

Route

SBMQ 100S05000W 200S05000W 300S05000W 400S05000W SBMA

ID Type Via Altitude Latitude Longitude Leg Dist Tot Dist Heading (true) Name
O SBMQ APT - 0 ft / 0 m 0.05064˚ -51.07216˚ - 0 nm - MACAPA
100S05000W LATLON - 31,100 ft / 9,479 m -1.00000˚ -50.00000˚ 90 nm 90 nm 134° / 134° -
200S05000W LATLON - 34,000 ft / 10,363 m -2.00000˚ -50.00000˚ 60 nm 150 nm 180° / 180° -
300S05000W LATLON - 32,600 ft / 9,936 m -3.00000˚ -50.00000˚ 60 nm 210 nm 180° / 180° -
400S05000W LATLON - 20,700 ft / 6,309 m -4.00000˚ -50.00000˚ 60 nm 270 nm 180° / 180° -
O SBMA APT - 0 ft / 0 m -5.36859˚ -49.13802˚ 97 nm 367 nm 148° / 148° Maraba

Altitude Profile

Advertisement - Login to hide

Weather


0- 5 10 15 20 25 30 35+ Temperature / ° C

Clouds and Precipitation
Forecast for 2017-12-17 12:00 UTC. Updated an hour ago

Ground ~20,000 ft ~40,000 ft Winds

SBMQ

Details ICAO SBMQ (MCP)
Name MACAPA
Region Brazil
Timezone America/Belem (UTC-3.0)
Stats Elevation 56 ft / 17 m (AMSL)
Location 0.050639° -51.072162°
Runways 1
Magnetic Variation 19.353° W

METAR

SBMQ 171000Z 30002KT 9999 FEW013 BKN022 BKN070 24/24 Q1011

Decode

TAF

TAF SBMQ 170400Z 1706/1806 06005KT 8000 FEW010 TN24/1709Z TX36/1717Z BECMG 1713/1715 03015KT 9999 SCT015 BECMG 1716/1718 09008KT 8000 RA BKN020 BECMG 1719/1721 05010KT SCT018 FEW025TCU RMK PCQ

Decode

Departure Runways

ID Width Length Bearing (true) Bearing (mag) Surface Threshold Offset Overrun Length
08 148 ft / 45 m 6,917 ft / 2,108 m 57.22° 76.57° Asphalt 0 ft / 0 m 219 ft / 67 m
26 148 ft / 45 m 6,917 ft / 2,108 m 237.22° 256.57° Asphalt 0 ft / 0 m 219 ft / 67 m

SBMA

Details ICAO SBMA (MAB)
Name Maraba
Region Brazil
Timezone America/Belem (UTC-3.0)
Stats Elevation 357 ft / 109 m (AMSL)
Location -5.368588° -49.138025°
Runways 1
Magnetic Variation 20.553° W

METAR

SBMA 171000Z 34003KT 9999 SCT008 SCT073 BKN083 24/23 Q1012

Decode

TAF

Not found

Destination Runways

ID Width Length Bearing (true) Bearing (mag) Surface Threshold Offset Overrun Length
07 148 ft / 45 m 6,582 ft / 2,006 m 50.35° 70.90° Asphalt 0 ft / 0 m 195 ft / 59 m
25 148 ft / 45 m 6,582 ft / 2,006 m 230.35° 250.90° Asphalt 0 ft / 0 m 195 ft / 59 m

Popular Alternatives